sensor_id;sensor_type;location;lat;lon;timestamp;P1;durP1;ratioP1;P2;durP2;ratioP2
36833;SDS011;48003;52.084;5.224;2023-08-08T00:00:52;7.3;;;2.21;;
36833;SDS011;48003;52.084;5.224;2023-08-08T00:02:28;19.0;;;2.8;;
36833;SDS011;48003;52.084;5.224;2023-08-08T00:04:05;13.2;;;2.7;;
36833;SDS011;48003;52.084;5.224;2023-08-08T00:07:17;7.7;;;2.5;;
36833;SDS011;48003;52.084;5.224;2023-08-08T00:08:53;11.0;;;2.7;;
36833;SDS011;48003;52.084;5.224;2023-08-08T00:10:29;12.1;;;2.8;;
36833;SDS011;48003;52.084;5.224;2023-08-08T00:13:42;15.9;;;3.1;;
36833;SDS011;48003;52.084;5.224;2023-08-08T00:15:18;11.8;;;2.4;;
36833;SDS011;48003;52.084;5.224;2023-08-08T00:16:54;11.0;;;2.8;;
36833;SDS011;48003;52.084;5.224;2023-08-08T00:20:07;6.9;;;2.31;;
36833;SDS011;48003;52.084;5.224;2023-08-08T00:21:44;10.0;;;2.4;;
36833;SDS011;48003;52.084;5.224;2023-08-08T00:23:20;13.6;;;2.8;;
36833;SDS011;48003;52.084;5.224;2023-08-08T00:26:32;10.8;;;2.31;;
36833;SDS011;48003;52.084;5.224;2023-08-08T00:28:08;12.8;;;2.6;;
36833;SDS011;48003;52.084;5.224;2023-08-08T00:29:44;12.0;;;2.31;;
36833;SDS011;48003;52.084;5.224;2023-08-08T00:31:21;9.0;;;2.5;;
36833;SDS011;48003;52.084;5.224;2023-08-08T00:34:33;10.1;;;2.7;;
36833;SDS011;48003;52.084;5.224;2023-08-08T00:36:09;9.4;;;2.31;;
36833;SDS011;48003;52.084;5.224;2023-08-08T00:37:45;11.9;;;2.4;;
36833;SDS011;48003;52.084;5.224;2023-08-08T00:40:57;11.7;;;2.9;;
36833;SDS011;48003;52.084;5.224;2023-08-08T00:42:33;8.9;;;2.5;;
36833;SDS011;48003;52.084;5.224;2023-08-08T00:44:09;11.2;;;2.31;;
36833;SDS011;48003;52.084;5.224;2023-08-08T00:47:21;9.4;;;2.7;;
36833;SDS011;48003;52.084;5.224;2023-08-08T00:48:58;11.9;;;2.7;;
36833;SDS011;48003;52.084;5.224;2023-08-08T00:50:34;13.3;;;2.9;;
36833;SDS011;48003;52.084;5.224;2023-08-08T00:52:12;12.2;;;2.7;;
36833;SDS011;48003;52.084;5.224;2023-08-08T00:55:25;10.4;;;3.1;;
36833;SDS011;48003;52.084;5.224;2023-08-08T00:57:03;13.8;;;2.9;;
36833;SDS011;48003;52.084;5.224;2023-08-08T00:58:39;11.2;;;2.8;;
36833;SDS011;48003;52.084;5.224;2023-08-08T01:01:51;8.81;;;2.8;;
36833;SDS011;48003;52.084;5.224;2023-08-08T01:03:28;12.2;;;2.6;;
36833;SDS011;48003;52.084;5.224;2023-08-08T01:05:04;14.6;;;2.9;;
36833;SDS011;48003;52.084;5.224;2023-08-08T01:08:30;12.0;;;2.8;;
36833;SDS011;48003;52.084;5.224;2023-08-08T01:10:15;11.2;;;2.9;;
36833;SDS011;48003;52.084;5.224;2023-08-08T01:11:56;12.6;;;2.9;;
36833;SDS011;48003;52.084;5.224;2023-08-08T01:13:33;9.21;;;2.9;;
36833;SDS011;48003;52.084;5.224;2023-08-08T01:15:12;12.7;;;2.8;;
36833;SDS011;48003;52.084;5.224;2023-08-08T01:18:28;10.21;;;2.6;;
36833;SDS011;48003;52.084;5.224;2023-08-08T01:20:06;8.81;;;2.6;;
36833;SDS011;48003;52.084;5.224;2023-08-08T01:21:44;12.7;;;2.6;;
36833;SDS011;48003;52.084;5.224;2023-08-08T01:25:08;11.7;;;3.1;;
36833;SDS011;48003;52.084;5.224;2023-08-08T01:26:46;15.8;;;3.2;;
36833;SDS011;48003;52.084;5.224;2023-08-08T01:28:23;11.7;;;3.2;;
36833;SDS011;48003;52.084;5.224;2023-08-08T01:30:00;12.1;;;3.1;;
36833;SDS011;48003;52.084;5.224;2023-08-08T01:33:12;10.6;;;3.2;;
36833;SDS011;48003;52.084;5.224;2023-08-08T01:34:48;11.3;;;2.8;;
36833;SDS011;48003;52.084;5.224;2023-08-08T01:36:27;10.9;;;3.1;;
36833;SDS011;48003;52.084;5.224;2023-08-08T01:39:51;13.8;;;2.9;;
36833;SDS011;48003;52.084;5.224;2023-08-08T01:41:29;11.8;;;2.9;;
36833;SDS011;48003;52.084;5.224;2023-08-08T01:43:07;11.4;;;2.8;;
36833;SDS011;48003;52.084;5.224;2023-08-08T01:44:44;9.81;;;2.9;;
36833;SDS011;48003;52.084;5.224;2023-08-08T01:47:59;12.7;;;3.1;;
36833;SDS011;48003;52.084;5.224;2023-08-08T01:49:35;13.5;;;3.3;;
36833;SDS011;48003;52.084;5.224;2023-08-08T01:51:11;8.31;;;2.8;;
36833;SDS011;48003;52.084;5.224;2023-08-08T01:54:23;11.9;;;3.0;;
36833;SDS011;48003;52.084;5.224;2023-08-08T01:55:59;11.2;;;2.7;;
36833;SDS011;48003;52.084;5.224;2023-08-08T01:57:35;14.7;;;2.9;;
36833;SDS011;48003;52.084;5.224;2023-08-08T01:59:11;12.2;;;3.5;;
36833;SDS011;48003;52.084;5.224;2023-08-08T02:02:23;10.9;;;2.8;;
36833;SDS011;48003;52.084;5.224;2023-08-08T02:04:00;11.9;;;3.0;;
36833;SDS011;48003;52.084;5.224;2023-08-08T02:05:36;13.7;;;3.0;;
36833;SDS011;48003;52.084;5.224;2023-08-08T02:08:48;11.4;;;2.9;;
36833;SDS011;48003;52.084;5.224;2023-08-08T02:10:24;13.4;;;3.2;;
36833;SDS011;48003;52.084;5.224;2023-08-08T02:12:00;13.1;;;3.3;;
36833;SDS011;48003;52.084;5.224;2023-08-08T02:15:12;15.1;;;3.3;;
36833;SDS011;48003;52.084;5.224;2023-08-08T02:16:49;15.2;;;3.1;;
36833;SDS011;48003;52.084;5.224;2023-08-08T02:18:26;13.7;;;3.2;;
36833;SDS011;48003;52.084;5.224;2023-08-08T02:20:02;10.5;;;3.0;;
36833;SDS011;48003;52.084;5.224;2023-08-08T02:23:15;13.1;;;2.9;;
36833;SDS011;48003;52.084;5.224;2023-08-08T02:24:51;11.8;;;3.2;;
36833;SDS011;48003;52.084;5.224;2023-08-08T02:26:27;12.4;;;3.5;;
36833;SDS011;48003;52.084;5.224;2023-08-08T02:29:40;13.4;;;3.2;;
36833;SDS011;48003;52.084;5.224;2023-08-08T02:31:16;14.3;;;3.5;;
36833;SDS011;48003;52.084;5.224;2023-08-08T02:32:52;9.4;;;3.0;;
36833;SDS011;48003;52.084;5.224;2023-08-08T02:36:05;12.8;;;2.8;;
36833;SDS011;48003;52.084;5.224;2023-08-08T02:37:41;13.0;;;2.8;;
36833;SDS011;48003;52.084;5.224;2023-08-08T02:39:17;13.0;;;3.3;;
36833;SDS011;48003;52.084;5.224;2023-08-08T02:42:29;8.6;;;2.8;;
36833;SDS011;48003;52.084;5.224;2023-08-08T02:44:06;9.4;;;2.7;;
36833;SDS011;48003;52.084;5.224;2023-08-08T02:45:42;8.9;;;3.0;;
36833;SDS011;48003;52.084;5.224;2023-08-08T02:47:18;11.6;;;3.1;;
36833;SDS011;48003;52.084;5.224;2023-08-08T02:50:31;8.5;;;2.5;;
36833;SDS011;48003;52.084;5.224;2023-08-08T02:52:07;12.4;;;3.1;;
36833;SDS011;48003;52.084;5.224;2023-08-08T02:53:43;8.31;;;2.6;;
36833;SDS011;48003;52.084;5.224;2023-08-08T02:56:55;14.5;;;3.4;;
36833;SDS011;48003;52.084;5.224;2023-08-08T02:58:31;9.71;;;3.4;;
36833;SDS011;48003;52.084;5.224;2023-08-08T03:00:07;9.0;;;3.2;;
36833;SDS011;48003;52.084;5.224;2023-08-08T03:03:20;10.0;;;3.4;;
36833;SDS011;48003;52.084;5.224;2023-08-08T03:04:56;11.7;;;3.6;;
36833;SDS011;48003;52.084;5.224;2023-08-08T03:06:32;12.0;;;3.5;;
36833;SDS011;48003;52.084;5.224;2023-08-08T03:08:08;13.2;;;3.3;;
36833;SDS011;48003;52.084;5.224;2023-08-08T03:11:20;10.8;;;3.2;;
36833;SDS011;48003;52.084;5.224;2023-08-08T03:12:56;12.0;;;3.4;;
36833;SDS011;48003;52.084;5.224;2023-08-08T03:14:32;12.1;;;3.7;;
36833;SDS011;48003;52.084;5.224;2023-08-08T03:17:44;10.3;;;3.1;;
36833;SDS011;48003;52.084;5.224;2023-08-08T03:19:21;11.3;;;3.0;;
36833;SDS011;48003;52.084;5.224;2023-08-08T03:20:57;12.8;;;3.2;;
36833;SDS011;48003;52.084;5.224;2023-08-08T03:24:09;10.7;;;3.4;;
36833;SDS011;48003;52.084;5.224;2023-08-08T03:25:45;9.4;;;3.4;;
36833;SDS011;48003;52.084;5.224;2023-08-08T03:27:21;12.3;;;3.7;;
36833;SDS011;48003;52.084;5.224;2023-08-08T03:30:36;10.9;;;3.3;;
36833;SDS011;48003;52.084;5.224;2023-08-08T03:32:12;9.4;;;2.7;;
36833;SDS011;48003;52.084;5.224;2023-08-08T03:33:49;8.4;;;3.3;;
36833;SDS011;48003;52.084;5.224;2023-08-08T03:35:25;10.21;;;3.2;;
36833;SDS011;48003;52.084;5.224;2023-08-08T03:38:37;11.0;;;2.9;;
36833;SDS011;48003;52.084;5.224;2023-08-08T03:40:13;10.1;;;3.3;;
36833;SDS011;48003;52.084;5.224;2023-08-08T03:41:49;8.31;;;3.3;;
36833;SDS011;48003;52.084;5.224;2023-08-08T03:45:01;10.0;;;3.3;;
36833;SDS011;48003;52.084;5.224;2023-08-08T03:46:37;8.0;;;2.9;;
36833;SDS011;48003;52.084;5.224;2023-08-08T03:48:13;11.2;;;3.0;;
36833;SDS011;48003;52.084;5.224;2023-08-08T03:51:26;11.0;;;3.3;;
36833;SDS011;48003;52.084;5.224;2023-08-08T03:53:02;10.0;;;3.1;;
36833;SDS011;48003;52.084;5.224;2023-08-08T03:54:38;7.9;;;3.1;;
36833;SDS011;48003;52.084;5.224;2023-08-08T03:56:14;9.21;;;3.6;;
36833;SDS011;48003;52.084;5.224;2023-08-08T03:59:26;9.9;;;3.7;;
36833;SDS011;48003;52.084;5.224;2023-08-08T04:01:02;9.31;;;3.1;;
36833;SDS011;48003;52.084;5.224;2023-08-08T04:02:39;13.6;;;3.8;;
36833;SDS011;48003;52.084;5.224;2023-08-08T04:05:51;8.71;;;3.7;;
36833;SDS011;48003;52.084;5.224;2023-08-08T04:07:27;9.9;;;3.5;;
36833;SDS011;48003;52.084;5.224;2023-08-08T04:09:03;7.7;;;3.1;;
36833;SDS011;48003;52.084;5.224;2023-08-08T04:12:15;13.1;;;3.6;;
36833;SDS011;48003;52.084;5.224;2023-08-08T04:13:51;6.9;;;2.9;;
36833;SDS011;48003;52.084;5.224;2023-08-08T04:15:27;9.5;;;2.9;;
36833;SDS011;48003;52.084;5.224;2023-08-08T04:18:40;13.2;;;3.3;;
36833;SDS011;48003;52.084;5.224;2023-08-08T04:20:16;7.7;;;2.8;;
36833;SDS011;48003;52.084;5.224;2023-08-08T04:21:52;6.2;;;2.6;;
36833;SDS011;48003;52.084;5.224;2023-08-08T04:23:28;8.1;;;2.7;;
36833;SDS011;48003;52.084;5.224;2023-08-08T04:26:41;5.7;;;2.5;;
36833;SDS011;48003;52.084;5.224;2023-08-08T04:28:18;8.2;;;2.6;;
36833;SDS011;48003;52.084;5.224;2023-08-08T04:29:53;5.2;;;2.4;;
36833;SDS011;48003;52.084;5.224;2023-08-08T04:33:06;5.0;;;2.21;;
36833;SDS011;48003;52.084;5.224;2023-08-08T04:34:42;10.5;;;3.0;;
36833;SDS011;48003;52.084;5.224;2023-08-08T04:36:18;5.2;;;2.1;;
36833;SDS011;48003;52.084;5.224;2023-08-08T04:39:30;8.4;;;3.0;;
36833;SDS011;48003;52.084;5.224;2023-08-08T04:41:06;7.7;;;2.8;;
36833;SDS011;48003;52.084;5.224;2023-08-08T04:42:42;7.6;;;2.9;;
36833;SDS011;48003;52.084;5.224;2023-08-08T04:45:55;7.8;;;2.7;;
36833;SDS011;48003;52.084;5.224;2023-08-08T04:47:31;7.1;;;2.8;;
36833;SDS011;48003;52.084;5.224;2023-08-08T04:49:07;10.9;;;3.1;;
36833;SDS011;48003;52.084;5.224;2023-08-08T04:50:43;9.9;;;3.5;;
36833;SDS011;48003;52.084;5.224;2023-08-08T04:53:57;6.7;;;3.1;;
36833;SDS011;48003;52.084;5.224;2023-08-08T04:55:33;10.6;;;3.4;;
36833;SDS011;48003;52.084;5.224;2023-08-08T04:57:09;7.3;;;2.6;;
36833;SDS011;48003;52.084;5.224;2023-08-08T05:00:21;9.1;;;3.2;;
36833;SDS011;48003;52.084;5.224;2023-08-08T05:01:58;8.1;;;3.5;;
36833;SDS011;48003;52.084;5.224;2023-08-08T05:03:34;7.8;;;2.9;;
36833;SDS011;48003;52.084;5.224;2023-08-08T05:06:46;6.4;;;2.9;;
36833;SDS011;48003;52.084;5.224;2023-08-08T05:08:22;8.5;;;2.8;;
36833;SDS011;48003;52.084;5.224;2023-08-08T05:09:58;9.5;;;2.9;;
36833;SDS011;48003;52.084;5.224;2023-08-08T05:11:35;6.6;;;2.8;;
36833;SDS011;48003;52.084;5.224;2023-08-08T05:14:48;8.0;;;2.8;;
36833;SDS011;48003;52.084;5.224;2023-08-08T05:16:25;9.9;;;2.7;;
36833;SDS011;48003;52.084;5.224;2023-08-08T05:18:01;9.31;;;3.0;;
36833;SDS011;48003;52.084;5.224;2023-08-08T05:21:13;12.9;;;3.0;;
36833;SDS011;48003;52.084;5.224;2023-08-08T05:22:49;8.71;;;2.7;;
36833;SDS011;48003;52.084;5.224;2023-08-08T05:24:25;5.2;;;2.7;;
36833;SDS011;48003;52.084;5.224;2023-08-08T05:27:38;6.3;;;2.31;;
36833;SDS011;48003;52.084;5.224;2023-08-08T05:29:15;6.5;;;2.5;;
36833;SDS011;48003;52.084;5.224;2023-08-08T05:30:52;5.4;;;2.31;;
36833;SDS011;48003;52.084;5.224;2023-08-08T05:32:28;6.5;;;2.31;;
36833;SDS011;48003;52.084;5.224;2023-08-08T05:35:40;5.6;;;2.1;;
36833;SDS011;48003;52.084;5.224;2023-08-08T05:37:16;6.8;;;2.0;;
36833;SDS011;48003;52.084;5.224;2023-08-08T05:38:52;5.3;;;1.6;;
36833;SDS011;48003;52.084;5.224;2023-08-08T05:42:05;5.4;;;1.7;;
36833;SDS011;48003;52.084;5.224;2023-08-08T05:43:41;7.8;;;1.8;;
36833;SDS011;48003;52.084;5.224;2023-08-08T05:45:18;10.0;;;5.11;;
36833;SDS011;48003;52.084;5.224;2023-08-08T05:48:30;5.4;;;2.5;;
36833;SDS011;48003;52.084;5.224;2023-08-08T05:50:06;3.6;;;1.8;;
36833;SDS011;48003;52.084;5.224;2023-08-08T05:51:43;8.2;;;2.1;;
36833;SDS011;48003;52.084;5.224;2023-08-08T05:54:55;4.5;;;1.6;;
36833;SDS011;48003;52.084;5.224;2023-08-08T05:56:34;5.0;;;1.6;;
36833;SDS011;48003;52.084;5.224;2023-08-08T05:58:10;4.8;;;1.3;;
36833;SDS011;48003;52.084;5.224;2023-08-08T05:59:47;6.9;;;1.4;;
36833;SDS011;48003;52.084;5.224;2023-08-08T06:02:59;4.1;;;1.11;;
36833;SDS011;48003;52.084;5.224;2023-08-08T06:04:35;5.0;;;1.7;;
36833;SDS011;48003;52.084;5.224;2023-08-08T06:06:11;6.1;;;1.5;;
36833;SDS011;48003;52.084;5.224;2023-08-08T06:09:24;3.9;;;1.5;;
36833;SDS011;48003;52.084;5.224;2023-08-08T06:11:00;4.1;;;1.5;;
36833;SDS011;48003;52.084;5.224;2023-08-08T06:12:36;2.7;;;1.11;;
36833;SDS011;48003;52.084;5.224;2023-08-08T06:15:49;2.9;;;1.2;;
36833;SDS011;48003;52.084;5.224;2023-08-08T06:17:25;3.8;;;1.11;;
36833;SDS011;48003;52.084;5.224;2023-08-08T06:19:01;5.7;;;1.5;;
36833;SDS011;48003;52.084;5.224;2023-08-08T06:20:37;3.5;;;1.11;;
36833;SDS011;48003;52.084;5.224;2023-08-08T06:23:49;3.5;;;1.2;;
36833;SDS011;48003;52.084;5.224;2023-08-08T06:25:25;2.6;;;1.0;;
36833;SDS011;48003;52.084;5.224;2023-08-08T06:27:01;5.6;;;1.4;;
36833;SDS011;48003;52.084;5.224;2023-08-08T06:30:14;5.11;;;1.11;;
36833;SDS011;48003;52.084;5.224;2023-08-08T06:31:50;4.0;;;1.2;;
36833;SDS011;48003;52.084;5.224;2023-08-08T06:33:26;3.0;;;1.0;;
36833;SDS011;48003;52.084;5.224;2023-08-08T06:36:39;2.7;;;1.11;;
36833;SDS011;48003;52.084;5.224;2023-08-08T06:38:15;3.3;;;1.2;;
36833;SDS011;48003;52.084;5.224;2023-08-08T06:39:51;2.9;;;1.11;;
36833;SDS011;48003;52.084;5.224;2023-08-08T06:43:03;5.7;;;2.1;;
36833;SDS011;48003;52.084;5.224;2023-08-08T06:44:41;2.8;;;1.0;;
36833;SDS011;48003;52.084;5.224;2023-08-08T06:46:18;4.2;;;1.4;;
36833;SDS011;48003;52.084;5.224;2023-08-08T06:47:54;5.7;;;1.7;;
36833;SDS011;48003;52.084;5.224;2023-08-08T06:51:06;5.0;;;1.0;;
36833;SDS011;48003;52.084;5.224;2023-08-08T06:52:42;4.8;;;1.8;;
36833;SDS011;48003;52.084;5.224;2023-08-08T06:54:18;2.9;;;1.3;;
36833;SDS011;48003;52.084;5.224;2023-08-08T06:57:32;4.91;;;0.9;;
36833;SDS011;48003;52.084;5.224;2023-08-08T06:59:09;3.4;;;1.11;;
36833;SDS011;48003;52.084;5.224;2023-08-08T07:00:46;3.0;;;1.0;;
36833;SDS011;48003;52.084;5.224;2023-08-08T07:03:58;3.6;;;0.9;;
36833;SDS011;48003;52.084;5.224;2023-08-08T07:05:34;2.5;;;0.8;;
36833;SDS011;48003;52.084;5.224;2023-08-08T07:08:46;5.2;;;0.8;;
36833;SDS011;48003;52.084;5.224;2023-08-08T07:11:58;3.8;;;0.9;;
36833;SDS011;48003;52.084;5.224;2023-08-08T07:13:34;4.2;;;0.9;;
36833;SDS011;48003;52.084;5.224;2023-08-08T07:15:11;5.0;;;1.0;;
36833;SDS011;48003;52.084;5.224;2023-08-08T07:18:24;4.2;;;0.8;;
36833;SDS011;48003;52.084;5.224;2023-08-08T07:20:00;4.1;;;1.5;;
36833;SDS011;48003;52.084;5.224;2023-08-08T07:21:36;5.0;;;0.9;;
36833;SDS011;48003;52.084;5.224;2023-08-08T07:24:48;3.8;;;0.8;;
36833;SDS011;48003;52.084;5.224;2023-08-08T07:26:24;4.41;;;1.11;;
36833;SDS011;48003;52.084;5.224;2023-08-08T07:28:00;4.91;;;1.7;;
36833;SDS011;48003;52.084;5.224;2023-08-08T07:29:37;3.2;;;0.9;;
36833;SDS011;48003;52.084;5.224;2023-08-08T07:32:49;3.0;;;0.7;;
36833;SDS011;48003;52.084;5.224;2023-08-08T07:34:25;4.0;;;0.7;;
36833;SDS011;48003;52.084;5.224;2023-08-08T07:36:01;2.8;;;0.7;;
36833;SDS011;48003;52.084;5.224;2023-08-08T07:39:13;1.9;;;0.7;;
36833;SDS011;48003;52.084;5.224;2023-08-08T07:40:49;2.6;;;0.8;;
36833;SDS011;48003;52.084;5.224;2023-08-08T07:42:25;4.1;;;1.11;;
36833;SDS011;48003;52.084;5.224;2023-08-08T07:45:38;3.1;;;0.8;;
36833;SDS011;48003;52.084;5.224;2023-08-08T07:47:14;3.1;;;0.9;;
36833;SDS011;48003;52.084;5.224;2023-08-08T07:48:49;4.41;;;1.0;;
36833;SDS011;48003;52.084;5.224;2023-08-08T07:52:01;2.31;;;0.5;;
36833;SDS011;48003;52.084;5.224;2023-08-08T07:53:37;3.1;;;0.6;;
36833;SDS011;48003;52.084;5.224;2023-08-08T07:55:13;3.8;;;0.8;;
36833;SDS011;48003;52.084;5.224;2023-08-08T07:56:50;2.4;;;0.5;;
36833;SDS011;48003;52.084;5.224;2023-08-08T08:00:03;2.4;;;0.5;;
36833;SDS011;48003;52.084;5.224;2023-08-08T08:01:42;2.31;;;0.6;;
36833;SDS011;48003;52.084;5.224;2023-08-08T08:03:18;3.8;;;0.4;;
36833;SDS011;48003;52.084;5.224;2023-08-08T08:06:31;3.9;;;0.7;;
36833;SDS011;48003;52.084;5.224;2023-08-08T08:08:07;2.21;;;0.5;;
36833;SDS011;48003;52.084;5.224;2023-08-08T08:09:43;2.5;;;0.6;;
36833;SDS011;48003;52.084;5.224;2023-08-08T08:12:56;2.6;;;0.6;;
36833;SDS011;48003;52.084;5.224;2023-08-08T08:14:32;2.9;;;0.7;;
36833;SDS011;48003;52.084;5.224;2023-08-08T08:16:08;3.0;;;0.5;;
36833;SDS011;48003;52.084;5.224;2023-08-08T08:17:44;1.7;;;0.4;;
36833;SDS011;48003;52.084;5.224;2023-08-08T08:20:56;1.9;;;0.6;;
36833;SDS011;48003;52.084;5.224;2023-08-08T08:22:32;4.0;;;0.5;;
36833;SDS011;48003;52.084;5.224;2023-08-08T08:24:08;2.31;;;0.7;;
36833;SDS011;48003;52.084;5.224;2023-08-08T08:27:20;2.5;;;1.11;;
36833;SDS011;48003;52.084;5.224;2023-08-08T08:28:57;1.3;;;0.5;;
36833;SDS011;48003;52.084;5.224;2023-08-08T08:30:33;2.9;;;0.9;;
36833;SDS011;48003;52.084;5.224;2023-08-08T08:33:45;3.3;;;0.7;;
36833;SDS011;48003;52.084;5.224;2023-08-08T08:35:21;3.2;;;0.5;;
36833;SDS011;48003;52.084;5.224;2023-08-08T08:36:57;2.8;;;0.6;;
36833;SDS011;48003;52.084;5.224;2023-08-08T08:40:10;3.9;;;1.11;;
36833;SDS011;48003;52.084;5.224;2023-08-08T08:41:48;3.8;;;0.7;;
36833;SDS011;48003;52.084;5.224;2023-08-08T08:43:27;2.1;;;0.5;;
36833;SDS011;48003;52.084;5.224;2023-08-08T08:45:04;2.8;;;0.6;;
36833;SDS011;48003;52.084;5.224;2023-08-08T08:48:22;3.4;;;0.8;;
36833;SDS011;48003;52.084;5.224;2023-08-08T08:49:58;3.7;;;0.7;;
36833;SDS011;48003;52.084;5.224;2023-08-08T08:51:35;4.0;;;0.5;;
36833;SDS011;48003;52.084;5.224;2023-08-08T08:54:50;1.4;;;0.5;;
36833;SDS011;48003;52.084;5.224;2023-08-08T08:56:27;3.9;;;0.5;;
36833;SDS011;48003;52.084;5.224;2023-08-08T08:58:05;1.3;;;0.4;;
36833;SDS011;48003;52.084;5.224;2023-08-08T08:59:42;2.8;;;0.4;;
36833;SDS011;48003;52.084;5.224;2023-08-08T09:02:55;2.31;;;0.5;;
36833;SDS011;48003;52.084;5.224;2023-08-08T09:04:31;1.5;;;0.4;;
36833;SDS011;48003;52.084;5.224;2023-08-08T09:06:09;1.8;;;0.5;;
36833;SDS011;48003;52.084;5.224;2023-08-08T09:09:22;2.9;;;0.4;;
36833;SDS011;48003;52.084;5.224;2023-08-08T09:10:58;2.31;;;0.5;;
36833;SDS011;48003;52.084;5.224;2023-08-08T09:12:35;3.3;;;0.5;;
36833;SDS011;48003;52.084;5.224;2023-08-08T09:15:56;3.0;;;0.6;;
36833;SDS011;48003;52.084;5.224;2023-08-08T09:17:32;1.3;;;0.5;;
36833;SDS011;48003;52.084;5.224;2023-08-08T09:19:08;3.7;;;0.6;;
36833;SDS011;48003;52.084;5.224;2023-08-08T09:20:46;2.1;;;0.5;;
36833;SDS011;48003;52.084;5.224;2023-08-08T09:24:00;1.5;;;0.5;;
36833;SDS011;48003;52.084;5.224;2023-08-08T09:25:36;7.1;;;3.3;;
36833;SDS011;48003;52.084;5.224;2023-08-08T09:27:13;2.6;;;0.7;;
36833;SDS011;48003;52.084;5.224;2023-08-08T09:30:26;3.1;;;0.6;;
36833;SDS011;48003;52.084;5.224;2023-08-08T09:32:03;2.7;;;0.7;;
36833;SDS011;48003;52.084;5.224;2023-08-08T09:33:40;1.9;;;0.5;;
36833;SDS011;48003;52.084;5.224;2023-08-08T09:35:18;3.3;;;0.8;;
36833;SDS011;48003;52.084;5.224;2023-08-08T09:38:30;2.8;;;0.6;;
36833;SDS011;48003;52.084;5.224;2023-08-08T09:40:07;1.7;;;0.6;;
36833;SDS011;48003;52.084;5.224;2023-08-08T09:41:45;2.5;;;0.6;;
36833;SDS011;48003;52.084;5.224;2023-08-08T09:44:58;1.3;;;0.6;;
36833;SDS011;48003;52.084;5.224;2023-08-08T09:46:35;1.5;;;0.6;;
36833;SDS011;48003;52.084;5.224;2023-08-08T09:48:11;4.2;;;0.7;;
36833;SDS011;48003;52.084;5.224;2023-08-08T09:49:47;2.31;;;0.9;;
36833;SDS011;48003;52.084;5.224;2023-08-08T09:53:01;1.9;;;0.7;;
36833;SDS011;48003;52.084;5.224;2023-08-08T09:54:38;2.0;;;0.6;;
36833;SDS011;48003;52.084;5.224;2023-08-08T09:56:17;5.9;;;0.9;;
36833;SDS011;48003;52.084;5.224;2023-08-08T09:59:33;2.5;;;0.8;;
36833;SDS011;48003;52.084;5.224;2023-08-08T10:01:10;1.6;;;0.5;;
36833;SDS011;48003;52.084;5.224;2023-08-08T10:02:46;2.31;;;0.7;;
36833;SDS011;48003;52.084;5.224;2023-08-08T10:06:01;3.2;;;0.7;;
36833;SDS011;48003;52.084;5.224;2023-08-08T10:07:37;2.21;;;0.5;;
36833;SDS011;48003;52.084;5.224;2023-08-08T10:09:15;1.5;;;0.6;;
36833;SDS011;48003;52.084;5.224;2023-08-08T10:10:52;2.31;;;0.6;;
36833;SDS011;48003;52.084;5.224;2023-08-08T10:14:06;3.0;;;0.7;;
36833;SDS011;48003;52.084;5.224;2023-08-08T10:15:44;1.9;;;0.7;;
36833;SDS011;48003;52.084;5.224;2023-08-08T10:17:20;2.1;;;0.6;;
36833;SDS011;48003;52.084;5.224;2023-08-08T10:20:35;2.0;;;0.7;;
36833;SDS011;48003;52.084;5.224;2023-08-08T10:22:11;2.0;;;0.7;;
36833;SDS011;48003;52.084;5.224;2023-08-08T10:23:47;2.1;;;0.5;;
36833;SDS011;48003;52.084;5.224;2023-08-08T10:25:24;2.6;;;0.7;;
36833;SDS011;48003;52.084;5.224;2023-08-08T10:30:16;2.0;;;0.7;;
36833;SDS011;48003;52.084;5.224;2023-08-08T10:31:52;2.9;;;0.6;;
36833;SDS011;48003;52.084;5.224;2023-08-08T10:35:17;1.11;;;0.6;;
36833;SDS011;48003;52.084;5.224;2023-08-08T10:36:53;2.5;;;0.6;;
36833;SDS011;48003;52.084;5.224;2023-08-08T10:38:41;1.7;;;0.5;;
36833;SDS011;48003;52.084;5.224;2023-08-08T10:40:19;3.1;;;0.6;;
36833;SDS011;48003;52.084;5.224;2023-08-08T10:43:46;1.6;;;0.6;;
36833;SDS011;48003;52.084;5.224;2023-08-08T10:45:28;2.8;;;0.7;;
36833;SDS011;48003;52.084;5.224;2023-08-08T10:47:06;3.5;;;0.6;;
36833;SDS011;48003;52.084;5.224;2023-08-08T10:48:50;1.8;;;0.5;;
36833;SDS011;48003;52.084;5.224;2023-08-08T10:50:27;2.8;;;0.7;;
36833;SDS011;48003;52.084;5.224;2023-08-08T10:53:43;1.8;;;0.8;;
36833;SDS011;48003;52.084;5.224;2023-08-08T10:55:20;2.1;;;0.6;;
36833;SDS011;48003;52.084;5.224;2023-08-08T10:56:58;2.31;;;0.7;;
36833;SDS011;48003;52.084;5.224;2023-08-08T11:00:16;2.31;;;0.6;;
36833;SDS011;48003;52.084;5.224;2023-08-08T11:01:53;1.9;;;0.7;;
36833;SDS011;48003;52.084;5.224;2023-08-08T11:03:30;3.3;;;0.8;;
36833;SDS011;48003;52.084;5.224;2023-08-08T11:05:07;1.6;;;0.5;;
36833;SDS011;48003;52.084;5.224;2023-08-08T11:08:22;1.9;;;0.5;;
36833;SDS011;48003;52.084;5.224;2023-08-08T11:09:59;2.4;;;0.8;;
36833;SDS011;48003;52.084;5.224;2023-08-08T11:11:37;2.6;;;0.6;;
36833;SDS011;48003;52.084;5.224;2023-08-08T11:14:50;2.21;;;0.6;;
36833;SDS011;48003;52.084;5.224;2023-08-08T11:16:26;1.8;;;0.6;;
36833;SDS011;48003;52.084;5.224;2023-08-08T11:18:03;2.1;;;0.5;;
36833;SDS011;48003;52.084;5.224;2023-08-08T11:21:17;1.8;;;0.7;;
36833;SDS011;48003;52.084;5.224;2023-08-08T11:22:53;1.0;;;0.4;;
36833;SDS011;48003;52.084;5.224;2023-08-08T11:24:34;3.0;;;0.6;;
36833;SDS011;48003;52.084;5.224;2023-08-08T11:26:11;4.41;;;0.6;;
36833;SDS011;48003;52.084;5.224;2023-08-08T11:29:26;2.9;;;0.6;;
36833;SDS011;48003;52.084;5.224;2023-08-08T11:31:02;3.0;;;0.8;;
36833;SDS011;48003;52.084;5.224;2023-08-08T11:32:38;3.0;;;0.7;;
36833;SDS011;48003;52.084;5.224;2023-08-08T11:35:51;2.5;;;0.7;;
36833;SDS011;48003;52.084;5.224;2023-08-08T11:37:28;2.6;;;0.7;;
36833;SDS011;48003;52.084;5.224;2023-08-08T11:39:04;4.0;;;0.8;;
36833;SDS011;48003;52.084;5.224;2023-08-08T11:40:43;2.1;;;0.7;;
36833;SDS011;48003;52.084;5.224;2023-08-08T11:43:56;3.3;;;0.7;;
36833;SDS011;48003;52.084;5.224;2023-08-08T11:45:33;1.6;;;0.7;;
36833;SDS011;48003;52.084;5.224;2023-08-08T11:47:10;2.8;;;0.6;;
36833;SDS011;48003;52.084;5.224;2023-08-08T11:50:23;2.0;;;0.6;;
36833;SDS011;48003;52.084;5.224;2023-08-08T11:52:01;3.0;;;0.7;;
36833;SDS011;48003;52.084;5.224;2023-08-08T11:53:47;1.3;;;0.6;;
36833;SDS011;48003;52.084;5.224;2023-08-08T11:55:27;2.9;;;0.7;;
36833;SDS011;48003;52.084;5.224;2023-08-08T11:58:40;2.31;;;0.5;;
36833;SDS011;48003;52.084;5.224;2023-08-08T12:00:16;1.9;;;0.6;;
36833;SDS011;48003;52.084;5.224;2023-08-08T12:01:52;1.6;;;0.6;;
36833;SDS011;48003;52.084;5.224;2023-08-08T12:05:05;1.6;;;0.6;;
36833;SDS011;48003;52.084;5.224;2023-08-08T12:06:42;1.3;;;0.5;;
36833;SDS011;48003;52.084;5.224;2023-08-08T12:08:18;2.8;;;0.5;;
36833;SDS011;48003;52.084;5.224;2023-08-08T12:11:33;4.3;;;0.8;;
36833;SDS011;48003;52.084;5.224;2023-08-08T12:13:10;1.8;;;0.5;;
36833;SDS011;48003;52.084;5.224;2023-08-08T12:14:46;1.5;;;0.6;;
36833;SDS011;48003;52.084;5.224;2023-08-08T12:16:22;2.7;;;0.6;;
36833;SDS011;48003;52.084;5.224;2023-08-08T12:19:44;3.4;;;0.7;;
36833;SDS011;48003;52.084;5.224;2023-08-08T12:21:22;3.5;;;0.6;;
36833;SDS011;48003;52.084;5.224;2023-08-08T12:22:58;2.0;;;0.7;;
36833;SDS011;48003;52.084;5.224;2023-08-08T12:24:35;1.5;;;0.5;;
36833;SDS011;48003;52.084;5.224;2023-08-08T12:27:47;1.4;;;0.5;;
36833;SDS011;48003;52.084;5.224;2023-08-08T12:29:23;2.1;;;0.6;;
36833;SDS011;48003;52.084;5.224;2023-08-08T12:30:59;1.5;;;0.6;;
36833;SDS011;48003;52.084;5.224;2023-08-08T12:34:12;1.8;;;0.5;;
36833;SDS011;48003;52.084;5.224;2023-08-08T12:35:48;2.1;;;0.8;;
36833;SDS011;48003;52.084;5.224;2023-08-08T12:37:24;1.0;;;0.5;;
36833;SDS011;48003;52.084;5.224;2023-08-08T12:40:36;3.0;;;0.8;;
36833;SDS011;48003;52.084;5.224;2023-08-08T12:42:12;1.4;;;0.9;;
36833;SDS011;48003;52.084;5.224;2023-08-08T12:43:48;3.8;;;0.7;;
36833;SDS011;48003;52.084;5.224;2023-08-08T12:47:02;1.5;;;0.7;;
36833;SDS011;48003;52.084;5.224;2023-08-08T12:48:37;3.0;;;0.7;;
36833;SDS011;48003;52.084;5.224;2023-08-08T12:50:14;2.31;;;0.8;;
36833;SDS011;48003;52.084;5.224;2023-08-08T12:51:50;2.1;;;0.6;;
36833;SDS011;48003;52.084;5.224;2023-08-08T12:55:03;2.7;;;0.7;;
36833;SDS011;48003;52.084;5.224;2023-08-08T12:56:40;3.1;;;0.8;;
36833;SDS011;48003;52.084;5.224;2023-08-08T12:58:16;2.6;;;0.6;;